createdAt,value
2022-10-07T00:02:00.087Z,6.18
2022-10-07T00:04:34.447Z,5.68
2022-10-07T00:07:03.685Z,5.45
2022-10-07T00:09:32.738Z,5.05
2022-10-07T00:12:02.394Z,5.13
2022-10-07T00:14:33.408Z,4.95
2022-10-07T00:17:04.028Z,4.28
2022-10-07T00:19:33.521Z,4.28
2022-10-07T00:22:02.612Z,5.35
2022-10-07T00:24:36.915Z,5.35
2022-10-07T00:27:06.352Z,4.95
2022-10-07T00:29:37.421Z,4.82
2022-10-07T00:32:12.113Z,4.43
2022-10-07T00:34:41.211Z,5.13
2022-10-07T00:37:10.163Z,3.80
2022-10-07T00:39:39.842Z,4.57
2022-10-07T00:42:18.271Z,4.60
2022-10-07T00:44:49.522Z,5.00
2022-10-07T00:47:26.852Z,3.72
2022-10-07T00:50:05.218Z,5.32
2022-10-07T00:52:39.697Z,3.80
2022-10-07T00:55:12.945Z,3.20
2022-10-07T00:57:48.761Z,3.80
2022-10-07T01:00:21.487Z,4.07
2022-10-07T01:02:50.852Z,4.63
2022-10-07T01:05:20.265Z,4.35
2022-10-07T01:07:59.119Z,4.50
2022-10-07T01:10:39.866Z,3.63
2022-10-07T01:13:15.884Z,3.70
2022-10-07T01:16:00.870Z,4.32
2022-10-07T01:18:38.150Z,4.53
2022-10-07T01:21:17.142Z,4.10
2022-10-07T01:24:05.111Z,4.70
2022-10-07T01:27:00.727Z,4.15
2022-10-07T01:29:41.672Z,4.07
2022-10-07T01:34:53.841Z,4.22
2022-10-07T01:37:26.609Z,4.63
2022-10-07T01:40:07.010Z,4.40
2022-10-07T01:42:43.544Z,3.90
2022-10-07T01:47:51.872Z,4.25
2022-10-07T01:50:25.658Z,4.03
2022-10-07T01:53:19.117Z,4.28
2022-10-07T01:55:58.505Z,4.63
2022-10-07T01:58:47.073Z,4.20
2022-10-07T02:01:23.138Z,4.28
2022-10-07T02:04:10.429Z,4.18
2022-10-07T02:06:48.420Z,4.18
2022-10-07T02:09:28.862Z,4.20
2022-10-07T02:12:06.823Z,4.38
2022-10-07T02:14:47.145Z,3.13
2022-10-07T02:17:22.387Z,4.13
2022-10-07T02:22:30.713Z,3.70
2022-10-07T02:25:03.674Z,4.07
2022-10-07T02:27:37.102Z,4.10
2022-10-07T02:30:16.535Z,3.47
2022-10-07T02:32:50.338Z,3.37
2022-10-07T02:38:05.646Z,3.67
2022-10-07T02:40:38.874Z,3.50
2022-10-07T02:43:13.980Z,3.83
2022-10-07T02:45:57.150Z,4.60
2022-10-07T02:48:30.416Z,4.30
2022-10-07T02:51:05.770Z,4.45
2022-10-07T02:53:37.220Z,4.10
2022-10-07T02:56:16.998Z,3.75
2022-10-07T02:58:48.602Z,4.10
2022-10-07T03:01:25.159Z,3.55
2022-10-07T03:03:54.945Z,4.28
2022-10-07T03:06:29.174Z,3.92
2022-10-07T03:09:00.475Z,4.03
2022-10-07T03:11:36.952Z,4.18
2022-10-07T03:14:06.273Z,3.42
2022-10-07T03:16:37.485Z,3.17
2022-10-07T03:19:07.089Z,4.15
2022-10-07T03:21:53.617Z,3.92
2022-10-07T03:24:28.069Z,3.22
2022-10-07T03:26:57.220Z,3.85
2022-10-07T03:29:26.893Z,3.13
2022-10-07T03:32:03.214Z,3.90
2022-10-07T03:34:35.086Z,3.40
2022-10-07T03:37:10.958Z,3.42
2022-10-07T03:39:40.203Z,3.65
2022-10-07T03:42:15.206Z,3.40
2022-10-07T03:44:45.226Z,3.10
2022-10-07T03:47:17.907Z,3.17
2022-10-07T03:49:52.922Z,3.50
2022-10-07T03:52:22.670Z,3.47
2022-10-07T03:54:52.784Z,2.90
2022-10-07T03:57:35.045Z,2.90
2022-10-07T04:00:09.345Z,2.75
2022-10-07T04:02:45.911Z,3.38
2022-10-07T04:05:16.218Z,3.45
2022-10-07T04:07:51.323Z,2.95
2022-10-07T04:10:22.637Z,2.88
2022-10-07T04:12:56.859Z,2.90
2022-10-07T04:15:26.276Z,3.03
2022-10-07T04:18:04.630Z,3.10
2022-10-07T04:20:33.950Z,3.35
2022-10-07T04:23:03.354Z,3.00
2022-10-07T04:25:37.348Z,2.90
2022-10-07T04:28:18.604Z,2.72
2022-10-07T04:30:51.305Z,2.63
2022-10-07T04:33:26.586Z,3.05
2022-10-07T04:36:06.405Z,2.70
2022-10-07T04:38:39.262Z,2.75
2022-10-07T04:41:14.854Z,2.92
2022-10-07T04:46:19.353Z,2.70
2022-10-07T04:48:55.184Z,2.30
2022-10-07T04:51:27.483Z,2.47
2022-10-07T04:54:00.223Z,2.25
2022-10-07T04:59:13.997Z,1.90
2022-10-07T05:01:44.744Z,1.88
2022-10-07T05:04:16.669Z,2.00
2022-10-07T05:06:51.056Z,2.40
2022-10-07T05:09:20.245Z,2.17
2022-10-07T05:11:50.768Z,2.28
2022-10-07T05:14:22.589Z,2.40
2022-10-07T05:16:53.960Z,1.92
2022-10-07T05:19:28.721Z,2.00
2022-10-07T05:21:58.100Z,2.38
2022-10-07T05:24:28.221Z,1.80
2022-10-07T05:27:13.541Z,2.13
2022-10-07T05:29:46.432Z,2.22
2022-10-07T05:32:15.787Z,2.15
2022-10-07T05:34:46.974Z,2.35
2022-10-07T05:37:16.927Z,2.15
2022-10-07T05:39:46.191Z,2.03
2022-10-07T05:42:20.458Z,2.40
2022-10-07T05:47:35.333Z,2.05
2022-10-07T05:50:08.955Z,2.03
2022-10-07T05:52:43.167Z,2.58
2022-10-07T05:55:12.475Z,2.55
2022-10-07T05:57:47.035Z,2.13
2022-10-07T06:00:18.763Z,1.95
2022-10-07T06:02:58.575Z,2.17
2022-10-07T06:05:32.243Z,1.67
2022-10-07T06:08:01.849Z,2.08
2022-10-07T06:10:43.934Z,2.00
2022-10-07T06:13:13.158Z,2.08
2022-10-07T06:15:44.326Z,1.55
2022-10-07T06:18:13.629Z,2.03
2022-10-07T06:20:55.145Z,2.10
2022-10-07T06:23:25.739Z,1.90
2022-10-07T06:25:57.573Z,1.60
2022-10-07T06:28:36.813Z,1.92
2022-10-07T06:31:06.931Z,2.10
2022-10-07T06:33:37.949Z,2.05
2022-10-07T06:36:12.418Z,1.58
2022-10-07T06:38:49.397Z,1.77
2022-10-07T06:41:21.712Z,1.80
2022-10-07T06:43:57.906Z,1.60
2022-10-07T06:46:29.323Z,1.55
2022-10-07T06:48:59.570Z,1.20
2022-10-07T06:51:30.796Z,1.75
2022-10-07T06:54:00.063Z,1.60
2022-10-07T06:56:35.103Z,1.35
2022-10-07T06:59:04.581Z,1.83
2022-10-07T07:01:41.225Z,1.40
2022-10-07T07:09:33.190Z,1.50
2022-10-07T07:12:04.358Z,1.40
2022-10-07T07:14:42.545Z,1.55
2022-10-07T07:17:17.439Z,1.42
2022-10-07T07:22:24.134Z,1.65
2022-10-07T07:24:58.520Z,1.55
2022-10-07T07:27:28.127Z,1.70
2022-10-07T07:30:02.830Z,1.25
2022-10-07T07:32:33.570Z,1.53
2022-10-07T07:35:04.278Z,1.60
2022-10-07T07:37:40.773Z,1.50
2022-10-07T07:40:11.726Z,1.77
2022-10-07T07:42:40.953Z,1.27
2022-10-07T07:45:17.684Z,1.70
2022-10-07T07:47:49.079Z,1.52
2022-10-07T07:50:20.496Z,1.30
2022-10-07T07:52:57.100Z,1.20
2022-10-07T07:55:26.895Z,0.95
2022-10-07T07:57:56.211Z,1.02
2022-10-07T08:00:25.455Z,1.10
2022-10-07T08:03:02.659Z,1.30
2022-10-07T08:05:33.675Z,1.30
2022-10-07T08:08:05.134Z,1.65
2022-10-07T08:10:34.924Z,1.50
2022-10-07T08:13:04.047Z,1.23
2022-10-07T08:15:33.686Z,1.35
2022-10-07T08:18:03.973Z,1.65
2022-10-07T08:20:38.662Z,1.70
2022-10-07T08:23:12.098Z,1.40
2022-10-07T08:25:46.236Z,1.20
2022-10-07T08:28:16.105Z,1.40
2022-10-07T08:30:46.195Z,1.50
2022-10-07T08:33:15.500Z,1.40
2022-10-07T08:35:44.747Z,1.40
2022-10-07T08:38:16.024Z,1.05
2022-10-07T08:40:49.432Z,1.48
2022-10-07T08:43:25.343Z,1.70
2022-10-07T08:45:55.610Z,1.27
2022-10-07T08:48:31.259Z,1.50
2022-10-07T08:51:13.673Z,1.45
2022-10-07T08:53:46.988Z,1.55
2022-10-07T08:56:19.340Z,1.20
2022-10-07T08:59:02.991Z,1.23
2022-10-07T09:01:47.058Z,1.70
2022-10-07T09:04:34.134Z,1.17
2022-10-07T09:07:06.962Z,1.02
2022-10-07T09:09:43.091Z,1.15
2022-10-07T09:12:22.497Z,1.23
2022-10-07T09:14:56.340Z,0.88
2022-10-07T09:17:34.892Z,1.35
2022-10-07T09:20:08.835Z,0.90
2022-10-07T09:22:42.362Z,1.63
2022-10-07T09:25:23.559Z,1.33
2022-10-07T09:27:54.072Z,1.30
2022-10-07T09:30:27.564Z,1.40
2022-10-07T09:35:38.295Z,1.25
2022-10-07T09:38:09.578Z,1.38
2022-10-07T09:41:07.074Z,1.50
2022-10-07T09:43:37.238Z,1.52
2022-10-07T09:46:07.795Z,1.30
2022-10-07T09:48:36.968Z,1.10
2022-10-07T09:51:18.325Z,1.40
2022-10-07T09:53:59.545Z,1.55
2022-10-07T09:56:39.527Z,1.55
2022-10-07T09:59:27.195Z,1.08
2022-10-07T10:01:59.135Z,1.20
2022-10-07T10:04:33.373Z,1.30
2022-10-07T10:09:55.774Z,1.30
2022-10-07T10:12:28.311Z,1.42
2022-10-07T10:15:05.521Z,1.20
2022-10-07T10:17:41.475Z,1.10
2022-10-07T10:20:39.053Z,1.30
2022-10-07T10:23:29.716Z,1.83
2022-10-07T10:26:34.413Z,1.20
2022-10-07T10:29:39.654Z,1.52
2022-10-07T10:32:29.149Z,1.27
2022-10-07T10:35:04.937Z,1.08
2022-10-07T10:37:57.936Z,1.40
2022-10-07T10:40:34.286Z,1.30
2022-10-07T10:43:17.100Z,1.20
2022-10-07T10:46:02.665Z,1.02
2022-10-07T10:48:39.561Z,1.00
2022-10-07T10:51:25.113Z,0.80
2022-10-07T10:54:10.313Z,0.90
2022-10-07T10:56:47.594Z,0.90
2022-10-07T10:59:33.978Z,1.20
2022-10-07T11:02:25.286Z,1.20
2022-10-07T11:04:58.834Z,1.13
2022-10-07T11:07:34.564Z,1.15
2022-10-07T11:10:08.983Z,1.33
2022-10-07T11:12:43.152Z,1.40
2022-10-07T11:15:23.382Z,1.40
2022-10-07T11:17:58.017Z,1.38
2022-10-07T11:20:32.828Z,1.20
2022-10-07T11:23:14.416Z,0.90
2022-10-07T11:25:49.038Z,1.42
2022-10-07T11:28:23.903Z,1.77
2022-10-07T11:30:59.930Z,1.20
2022-10-07T11:33:42.768Z,1.33
2022-10-07T11:36:17.726Z,1.58
2022-10-07T11:38:48.651Z,1.23
2022-10-07T11:41:23.796Z,1.13
2022-10-07T11:44:01.632Z,1.20
2022-10-07T11:46:36.761Z,1.30
2022-10-07T11:49:14.323Z,1.65
2022-10-07T11:51:54.206Z,1.20
2022-10-07T11:54:37.917Z,1.30
2022-10-07T11:57:07.269Z,1.67
2022-10-07T11:59:45.706Z,1.20
2022-10-07T12:02:39.636Z,1.30
2022-10-07T12:05:46.203Z,1.00
2022-10-07T12:08:33.273Z,1.20
2022-10-07T12:11:35.168Z,1.10
2022-10-07T12:14:31.720Z,1.10
2022-10-07T12:17:30.924Z,1.10
2022-10-07T12:20:35.009Z,1.05
2022-10-07T12:23:45.395Z,1.40
2022-10-07T12:26:49.362Z,1.30
2022-10-07T12:29:35.655Z,1.27
2022-10-07T12:32:44.677Z,1.40
2022-10-07T12:35:43.849Z,1.30
2022-10-07T12:38:20.177Z,1.23
2022-10-07T12:40:55.759Z,1.00
2022-10-07T12:43:42.879Z,1.40
2022-10-07T12:46:16.506Z,1.70
2022-10-07T12:56:30.838Z,0.90
2022-10-07T12:59:51.689Z,1.20
2022-10-07T13:02:53.726Z,1.00
2022-10-07T13:05:49.480Z,1.30
2022-10-07T13:08:48.345Z,1.23
2022-10-07T13:11:48.061Z,0.88
2022-10-07T13:14:24.597Z,1.35
2022-10-07T13:17:01.145Z,0.98
2022-10-07T13:19:36.794Z,1.13
2022-10-07T13:22:15.738Z,1.40
2022-10-07T13:24:49.800Z,1.45
2022-10-07T13:27:26.437Z,1.45
2022-10-07T13:29:56.397Z,0.88
2022-10-07T13:32:29.722Z,1.10
2022-10-07T13:35:01.160Z,1.75
2022-10-07T13:37:38.653Z,1.33
2022-10-07T13:40:23.640Z,1.27
2022-10-07T13:42:58.671Z,1.75
2022-10-07T13:45:29.148Z,1.40
2022-10-07T13:47:58.882Z,1.30
2022-10-07T13:50:30.923Z,1.40
2022-10-07T13:53:01.079Z,1.48
2022-10-07T13:55:31.591Z,1.50
2022-10-07T13:58:06.205Z,1.70
2022-10-07T14:00:42.946Z,1.67
2022-10-07T14:03:15.841Z,1.20
2022-10-07T14:05:51.511Z,0.85
2022-10-07T14:08:22.963Z,1.20
2022-10-07T14:10:55.883Z,1.30
2022-10-07T14:13:28.515Z,1.40
2022-10-07T14:15:59.376Z,1.35
2022-10-07T14:18:30.879Z,1.40
2022-10-07T14:21:16.387Z,1.30
2022-10-07T14:23:46.726Z,0.85
2022-10-07T14:26:17.255Z,1.27
2022-10-07T14:28:48.370Z,1.40
2022-10-07T14:31:35.598Z,1.70
2022-10-07T14:34:28.046Z,2.35
2022-10-07T14:37:09.808Z,1.80
2022-10-07T14:39:40.225Z,1.63
2022-10-07T14:42:14.118Z,1.90
2022-10-07T14:44:57.136Z,1.60
2022-10-07T14:47:27.830Z,1.50
2022-10-07T14:49:59.035Z,4.03
2022-10-07T14:52:39.638Z,1.80
2022-10-07T14:55:23.666Z,1.73
2022-10-07T14:57:53.267Z,1.50
2022-10-07T15:00:27.220Z,2.05
2022-10-07T15:03:02.506Z,1.30
2022-10-07T15:05:39.732Z,1.70
2022-10-07T15:08:10.426Z,1.65
2022-10-07T15:10:42.213Z,1.30
2022-10-07T15:13:13.430Z,2.03
2022-10-07T15:15:47.042Z,1.77
2022-10-07T15:18:16.339Z,1.42
2022-10-07T15:20:45.450Z,1.75
2022-10-07T15:23:15.556Z,1.92
2022-10-07T15:25:45.444Z,1.42
2022-10-07T15:28:15.649Z,1.40
2022-10-07T15:30:46.998Z,1.48
2022-10-07T15:33:16.461Z,1.75
2022-10-07T15:35:45.931Z,2.20
2022-10-07T15:38:15.217Z,1.42
2022-10-07T15:40:55.819Z,1.50
2022-10-07T15:43:25.608Z,1.50
2022-10-07T15:45:58.537Z,2.10
2022-10-07T15:48:28.425Z,1.83
2022-10-07T15:51:00.104Z,1.38
2022-10-07T15:53:29.877Z,1.52
2022-10-07T15:56:00.065Z,2.10
2022-10-07T15:58:32.189Z,1.17
2022-10-07T16:01:10.868Z,1.45
2022-10-07T16:03:42.518Z,1.58
2022-10-07T16:06:15.449Z,1.23
2022-10-07T16:08:44.889Z,1.35
2022-10-07T16:11:14.637Z,1.48
2022-10-07T16:13:46.589Z,1.45
2022-10-07T16:18:50.331Z,1.88
2022-10-07T16:21:22.871Z,1.55
2022-10-07T16:23:54.298Z,2.00
2022-10-07T16:26:26.456Z,1.90
2022-10-07T16:29:15.296Z,1.88
2022-10-07T16:31:47.538Z,1.70
2022-10-07T16:34:18.801Z,2.00
2022-10-07T16:36:49.729Z,1.80
2022-10-07T16:39:24.155Z,1.83
2022-10-07T16:41:53.750Z,2.08
2022-10-07T16:44:34.969Z,1.77
2022-10-07T16:47:06.141Z,1.80
2022-10-07T16:49:36.064Z,2.58
2022-10-07T16:52:06.061Z,2.67
2022-10-07T16:54:35.261Z,2.70
2022-10-07T16:57:04.569Z,2.05
2022-10-07T16:59:34.035Z,2.38
2022-10-07T17:02:06.121Z,2.67
2022-10-07T17:04:35.839Z,1.92
2022-10-07T17:07:05.399Z,2.33
2022-10-07T17:09:34.600Z,2.78
2022-10-07T17:12:04.135Z,2.40
2022-10-07T17:14:38.178Z,2.10
2022-10-07T17:17:09.497Z,2.50
2022-10-07T17:19:39.085Z,2.15
2022-10-07T17:22:09.209Z,2.08
2022-10-07T17:24:38.915Z,2.13
2022-10-07T17:27:13.573Z,2.20
2022-10-07T17:29:42.923Z,1.67
2022-10-07T17:32:14.208Z,2.65
2022-10-07T17:34:45.558Z,2.00
2022-10-07T17:37:15.167Z,2.20
2022-10-07T17:39:44.424Z,2.60
2022-10-07T17:42:18.828Z,1.80
2022-10-07T17:44:48.261Z,1.98
2022-10-07T17:47:19.645Z,1.95
2022-10-07T17:49:49.037Z,2.28
2022-10-07T17:52:18.370Z,2.15
2022-10-07T17:54:49.703Z,2.50
2022-10-07T17:57:20.974Z,2.28
2022-10-07T17:59:53.074Z,2.22
2022-10-07T18:02:40.605Z,2.05
2022-10-07T18:05:10.380Z,2.20
2022-10-07T18:07:39.510Z,2.35
2022-10-07T18:10:09.607Z,2.42
2022-10-07T18:12:51.789Z,1.90
2022-10-07T18:15:23.908Z,2.10
2022-10-07T18:18:06.150Z,2.42
2022-10-07T18:20:41.104Z,2.10
2022-10-07T18:23:10.474Z,2.33
2022-10-07T18:25:40.678Z,2.40
2022-10-07T18:28:10.134Z,2.10
2022-10-07T18:30:39.520Z,1.90
2022-10-07T18:33:10.806Z,2.40
2022-10-07T18:35:40.382Z,2.70
2022-10-07T18:38:09.423Z,2.00
2022-10-07T18:40:38.674Z,3.08
2022-10-07T18:43:08.299Z,2.63
2022-10-07T18:45:37.792Z,2.42
2022-10-07T18:48:07.176Z,2.10
2022-10-07T18:50:38.264Z,2.15
2022-10-07T18:53:07.502Z,2.50
2022-10-07T18:55:40.849Z,2.65
2022-10-07T18:58:11.353Z,2.33
2022-10-07T19:00:43.036Z,2.35
2022-10-07T19:03:12.486Z,2.40
2022-10-07T19:05:48.922Z,2.42
2022-10-07T19:08:18.873Z,2.10
2022-10-07T19:10:48.001Z,2.67
2022-10-07T19:13:35.592Z,2.80
2022-10-07T19:16:05.616Z,2.33
2022-10-07T19:18:41.789Z,2.50
2022-10-07T19:21:14.751Z,2.72
2022-10-07T19:23:44.541Z,2.47
2022-10-07T19:26:21.470Z,2.33
2022-10-07T19:28:51.941Z,2.30
2022-10-07T19:31:24.867Z,2.13
2022-10-07T19:34:01.909Z,2.75
2022-10-07T19:36:34.963Z,2.63
2022-10-07T19:39:05.760Z,2.83
2022-10-07T19:41:36.792Z,2.60
2022-10-07T19:44:07.271Z,2.22
2022-10-07T19:46:37.446Z,2.78
2022-10-07T19:49:08.910Z,3.17
2022-10-07T19:51:41.738Z,2.67
2022-10-07T19:54:17.567Z,2.17
2022-10-07T19:56:46.971Z,2.30
2022-10-07T19:59:16.635Z,2.75
2022-10-07T20:01:49.262Z,2.80
2022-10-07T20:04:20.619Z,2.55
2022-10-07T20:06:51.882Z,3.05
2022-10-07T20:09:22.411Z,2.40
2022-10-07T20:11:51.630Z,2.30
2022-10-07T20:14:32.702Z,2.65
2022-10-07T20:17:06.956Z,3.03
2022-10-07T20:19:36.124Z,2.75
2022-10-07T20:22:07.248Z,2.60
2022-10-07T20:24:36.551Z,2.60
2022-10-07T20:27:06.142Z,2.83
2022-10-07T20:29:55.350Z,3.35
2022-10-07T20:32:24.679Z,2.70
2022-10-07T20:34:54.601Z,2.70
2022-10-07T20:37:25.919Z,2.70
2022-10-07T20:40:08.163Z,3.28
2022-10-07T20:42:46.877Z,2.60
2022-10-07T20:45:17.038Z,3.17
2022-10-07T20:47:46.938Z,3.28
2022-10-07T20:50:16.111Z,3.20
2022-10-07T20:52:47.434Z,2.50
2022-10-07T20:55:22.020Z,2.83
2022-10-07T20:57:51.280Z,2.80
2022-10-07T21:00:20.638Z,2.95
2022-10-07T21:02:50.388Z,2.95
2022-10-07T21:05:20.306Z,3.42
2022-10-07T21:07:54.685Z,2.80
2022-10-07T21:10:24.156Z,2.90
2022-10-07T21:12:53.528Z,3.20
2022-10-07T21:15:22.752Z,3.00
2022-10-07T21:17:51.911Z,2.97
2022-10-07T21:20:21.211Z,2.58
2022-10-07T21:22:53.790Z,2.95
2022-10-07T21:25:23.023Z,2.88
2022-10-07T21:27:52.089Z,3.10
2022-10-07T21:30:21.234Z,2.85
2022-10-07T21:32:50.348Z,2.95
2022-10-07T21:35:19.513Z,3.15
2022-10-07T21:37:53.697Z,2.95
2022-10-07T21:40:25.044Z,3.00
2022-10-07T21:42:54.374Z,2.92
2022-10-07T21:45:23.523Z,3.42
2022-10-07T21:47:58.696Z,3.28
2022-10-07T21:50:27.830Z,3.38
2022-10-07T21:52:56.862Z,3.50
2022-10-07T21:55:35.966Z,2.78
2022-10-07T21:58:11.528Z,3.22
2022-10-07T22:00:46.535Z,2.83
2022-10-07T22:03:16.479Z,3.00
2022-10-07T22:05:45.507Z,3.67
2022-10-07T22:08:29.755Z,3.30
2022-10-07T22:11:04.062Z,3.35
2022-10-07T22:13:40.825Z,3.50
2022-10-07T22:16:14.269Z,3.10
2022-10-07T22:18:44.994Z,3.42
2022-10-07T22:21:15.813Z,3.17
2022-10-07T22:23:45.981Z,3.20
2022-10-07T22:26:29.446Z,3.50
2022-10-07T22:28:58.935Z,3.55
2022-10-07T22:31:29.734Z,3.05
2022-10-07T22:34:00.935Z,3.27
2022-10-07T22:36:31.090Z,2.80
2022-10-07T22:39:01.078Z,3.35
2022-10-07T22:41:32.471Z,3.45
2022-10-07T22:46:36.116Z,3.13
2022-10-07T22:49:05.365Z,3.28
2022-10-07T22:51:34.457Z,3.45
2022-10-07T22:56:47.161Z,3.10
2022-10-07T22:59:16.546Z,3.33
2022-10-07T23:01:45.656Z,3.10
2022-10-07T23:04:14.664Z,3.10
2022-10-07T23:06:43.602Z,3.22
2022-10-07T23:09:13.111Z,3.25
2022-10-07T23:11:42.269Z,3.20
2022-10-07T23:14:13.674Z,3.45
2022-10-07T23:16:55.854Z,3.20
2022-10-07T23:19:25.075Z,3.38
2022-10-07T23:21:54.623Z,3.25
2022-10-07T23:24:23.589Z,3.50
2022-10-07T23:27:02.903Z,3.30
2022-10-07T23:29:34.697Z,3.75
2022-10-07T23:34:33.157Z,3.88
2022-10-07T23:37:02.430Z,3.45
2022-10-07T23:39:31.527Z,2.97
2022-10-07T23:42:05.885Z,3.42
2022-10-07T23:44:37.994Z,3.40
2022-10-07T23:47:07.652Z,3.70
2022-10-07T23:49:36.770Z,3.30
2022-10-07T23:54:40.222Z,3.92
2022-10-07T23:57:09.328Z,3.63
2022-10-07T23:59:41.858Z,4.25
